createdAt,value
2022-11-25T00:00:56.575Z,1000.03
2022-11-25T00:01:56.591Z,1000.06
2022-11-25T00:02:56.644Z,1000.05
2022-11-25T00:04:03.837Z,1000.02
2022-11-25T00:04:56.526Z,1000.00
2022-11-25T00:05:56.576Z,1000.00
2022-11-25T00:06:56.571Z,999.99
2022-11-25T00:07:56.639Z,1000.00
2022-11-25T00:08:56.617Z,999.95
2022-11-25T00:09:56.475Z,999.90
2022-11-25T00:10:56.504Z,999.90
2022-11-25T00:11:56.570Z,999.86
2022-11-25T00:12:56.429Z,999.85
2022-11-25T00:13:56.496Z,999.81
2022-11-25T00:14:57.416Z,999.80
2022-11-25T00:15:56.392Z,999.82
2022-11-25T00:16:56.450Z,999.83
2022-11-25T00:17:56.425Z,999.82
2022-11-25T00:18:56.397Z,999.78
2022-11-25T00:19:56.489Z,999.81
2022-11-25T00:20:56.336Z,999.84
2022-11-25T00:21:56.356Z,999.81
2022-11-25T00:22:56.306Z,999.83
2022-11-25T00:23:56.332Z,999.83
2022-11-25T00:24:56.298Z,999.81
2022-11-25T00:25:56.283Z,999.75
2022-11-25T00:26:56.284Z,999.78
2022-11-25T00:27:56.296Z,999.80
2022-11-25T00:28:56.215Z,999.78
2022-11-25T00:29:56.217Z,999.75
2022-11-25T00:30:56.224Z,999.78
2022-11-25T00:31:56.215Z,999.75
2022-11-25T00:32:56.164Z,999.80
2022-11-25T00:33:56.143Z,999.77
2022-11-25T00:34:56.156Z,999.79
2022-11-25T00:35:56.112Z,999.79
2022-11-25T00:36:56.134Z,999.79
2022-11-25T00:37:56.084Z,999.83
2022-11-25T00:38:56.083Z,999.80
2022-11-25T00:39:56.088Z,999.78
2022-11-25T00:40:56.053Z,999.74
2022-11-25T00:41:56.053Z,999.73
2022-11-25T00:42:56.025Z,999.73
2022-11-25T00:43:56.015Z,999.74
2022-11-25T00:44:56.013Z,999.76
2022-11-25T00:45:56.047Z,999.78
2022-11-25T00:46:55.977Z,999.78
2022-11-25T00:47:55.953Z,999.77
2022-11-25T00:48:55.953Z,999.74
2022-11-25T00:49:55.954Z,999.76
2022-11-25T00:50:55.926Z,999.73
2022-11-25T00:51:55.912Z,999.73
2022-11-25T00:52:55.903Z,999.74
2022-11-25T00:53:58.979Z,999.76
2022-11-25T00:54:55.890Z,999.74
2022-11-25T00:55:55.854Z,999.73
2022-11-25T00:56:55.843Z,999.73
2022-11-25T00:57:55.829Z,999.72
2022-11-25T00:58:55.813Z,999.67
2022-11-25T00:59:55.822Z,999.70
2022-11-25T01:00:55.804Z,999.66
2022-11-25T01:01:55.824Z,999.67
2022-11-25T01:02:55.763Z,999.66
2022-11-25T01:03:55.751Z,999.66
2022-11-25T01:04:55.752Z,999.70
2022-11-25T01:05:55.722Z,999.73
2022-11-25T01:06:55.711Z,999.76
2022-11-25T01:07:55.701Z,999.75
2022-11-25T01:08:55.682Z,999.77
2022-11-25T01:09:55.682Z,999.79
2022-11-25T01:10:55.652Z,999.78
2022-11-25T01:11:55.642Z,999.77
2022-11-25T01:12:55.646Z,999.81
2022-11-25T01:14:00.788Z,999.79
2022-11-25T01:14:56.658Z,999.85
2022-11-25T01:15:55.592Z,999.83
2022-11-25T01:16:55.613Z,999.80
2022-11-25T01:17:55.561Z,999.75
2022-11-25T01:18:55.550Z,999.77
2022-11-25T01:19:55.551Z,999.74
2022-11-25T01:20:55.511Z,999.77
2022-11-25T01:21:55.511Z,999.76
2022-11-25T01:22:55.491Z,999.75
2022-11-25T01:23:55.495Z,999.80
2022-11-25T01:24:55.490Z,999.80
2022-11-25T01:25:55.455Z,999.79
2022-11-25T01:26:55.450Z,999.80
2022-11-25T01:27:55.430Z,999.82
2022-11-25T01:28:55.421Z,999.83
2022-11-25T01:29:55.444Z,999.80
2022-11-25T01:30:55.392Z,999.82
2022-11-25T01:31:55.406Z,999.82
2022-11-25T01:32:55.373Z,999.82
2022-11-25T01:33:55.361Z,999.82
2022-11-25T01:34:55.360Z,999.81
2022-11-25T01:35:55.329Z,999.83
2022-11-25T01:36:55.321Z,999.85
2022-11-25T01:37:55.417Z,999.88
2022-11-25T01:38:55.290Z,999.86
2022-11-25T01:39:55.300Z,999.78
2022-11-25T01:40:55.261Z,999.78
2022-11-25T01:41:55.256Z,999.77
2022-11-25T01:42:55.242Z,999.78
2022-11-25T01:43:55.237Z,999.75
2022-11-25T01:44:55.218Z,999.77
2022-11-25T01:45:55.260Z,999.75
2022-11-25T01:46:55.188Z,999.79
2022-11-25T01:47:55.170Z,999.81
2022-11-25T01:48:55.159Z,999.81
2022-11-25T01:49:55.140Z,999.78
2022-11-25T01:50:55.159Z,999.82
2022-11-25T01:51:55.119Z,999.79
2022-11-25T01:52:55.108Z,999.78
2022-11-25T01:53:55.129Z,999.84
2022-11-25T01:54:55.078Z,999.79
2022-11-25T01:55:55.103Z,999.74
2022-11-25T01:56:55.059Z,999.71
2022-11-25T01:57:55.050Z,999.73
2022-11-25T01:58:55.030Z,999.71
2022-11-25T01:59:55.010Z,999.72
2022-11-25T02:00:55.040Z,999.65
2022-11-25T02:01:55.036Z,999.66
2022-11-25T02:02:54.984Z,999.67
2022-11-25T02:03:54.966Z,999.67
2022-11-25T02:04:54.951Z,999.65
2022-11-25T02:05:54.949Z,999.66
2022-11-25T02:06:54.928Z,999.60
2022-11-25T02:07:54.988Z,999.57
2022-11-25T02:08:54.897Z,999.58
2022-11-25T02:09:54.889Z,999.57
2022-11-25T02:10:54.888Z,999.60
2022-11-25T02:11:54.859Z,999.62
2022-11-25T02:12:54.869Z,999.58
2022-11-25T02:13:54.846Z,999.58
2022-11-25T02:14:54.819Z,999.60
2022-11-25T02:15:54.830Z,999.58
2022-11-25T02:16:54.857Z,999.59
2022-11-25T02:17:54.790Z,999.58
2022-11-25T02:18:54.780Z,999.63
2022-11-25T02:19:54.758Z,999.61
2022-11-25T02:20:54.757Z,999.61
2022-11-25T02:21:54.741Z,999.59
2022-11-25T02:22:54.781Z,999.58
2022-11-25T02:23:54.708Z,999.60
2022-11-25T02:24:54.678Z,999.59
2022-11-25T02:25:54.698Z,999.56
2022-11-25T02:26:54.667Z,999.56
2022-11-25T02:27:54.658Z,999.54
2022-11-25T02:28:54.647Z,999.51
2022-11-25T02:29:54.635Z,999.50
2022-11-25T02:30:54.649Z,999.49
2022-11-25T02:33:28.764Z,999.46
2022-11-25T02:34:05.216Z,999.45
2022-11-25T02:35:05.202Z,999.47
2022-11-25T02:36:05.211Z,999.51
2022-11-25T02:37:05.179Z,999.48
2022-11-25T02:38:05.167Z,999.50
2022-11-25T02:39:05.168Z,999.51
2022-11-25T02:40:05.149Z,999.50
2022-11-25T02:41:05.141Z,999.46
2022-11-25T02:42:05.113Z,999.47
2022-11-25T02:43:05.121Z,999.43
2022-11-25T02:44:05.080Z,999.43
2022-11-25T02:45:05.099Z,999.44
2022-11-25T02:46:05.081Z,999.45
2022-11-25T02:47:05.052Z,999.46
2022-11-25T02:48:05.043Z,999.43
2022-11-25T02:49:09.660Z,999.43
2022-11-25T02:50:06.000Z,999.41
2022-11-25T02:51:04.991Z,999.38
2022-11-25T02:52:04.997Z,999.36
2022-11-25T02:53:04.952Z,999.33
2022-11-25T02:54:04.961Z,999.32
2022-11-25T02:55:04.950Z,999.37
2022-11-25T02:56:04.921Z,999.31
2022-11-25T02:57:04.950Z,999.34
2022-11-25T02:58:04.912Z,999.36
2022-11-25T02:59:04.893Z,999.38
2022-11-25T03:00:04.870Z,999.40
2022-11-25T03:01:04.940Z,999.34
2022-11-25T03:02:04.899Z,999.35
2022-11-25T03:03:04.850Z,999.39
2022-11-25T03:04:04.835Z,999.39
2022-11-25T03:05:04.819Z,999.38
2022-11-25T03:06:04.822Z,999.44
2022-11-25T03:07:04.810Z,999.43
2022-11-25T03:08:04.773Z,999.40
2022-11-25T03:09:04.769Z,999.41
2022-11-25T03:10:04.742Z,999.38
2022-11-25T03:11:04.751Z,999.39
2022-11-25T03:12:04.731Z,999.39
2022-11-25T03:13:04.721Z,999.39
2022-11-25T03:14:04.691Z,999.38
2022-11-25T03:15:04.689Z,999.36
2022-11-25T03:16:04.723Z,999.38
2022-11-25T03:17:04.685Z,999.38
2022-11-25T03:18:04.656Z,999.34
2022-11-25T03:19:04.642Z,999.34
2022-11-25T03:20:04.622Z,999.30
2022-11-25T03:21:04.626Z,999.30
2022-11-25T03:22:04.628Z,999.34
2022-11-25T03:23:04.596Z,999.31
2022-11-25T03:24:04.571Z,999.29
2022-11-25T03:25:04.571Z,999.31
2022-11-25T03:26:04.552Z,999.33
2022-11-25T03:27:04.570Z,999.31
2022-11-25T03:28:04.521Z,999.30
2022-11-25T03:29:04.513Z,999.30
2022-11-25T03:30:04.514Z,999.31
2022-11-25T03:31:04.483Z,999.31
2022-11-25T03:32:09.312Z,999.36
2022-11-25T03:33:05.491Z,999.34
2022-11-25T03:34:04.453Z,999.38
2022-11-25T03:35:04.445Z,999.37
2022-11-25T03:36:04.423Z,999.37
2022-11-25T03:37:04.619Z,999.40
2022-11-25T03:38:04.391Z,999.35
2022-11-25T03:39:04.390Z,999.34
2022-11-25T03:40:04.361Z,999.35
2022-11-25T03:41:04.361Z,999.38
2022-11-25T03:42:04.362Z,999.36
2022-11-25T03:43:04.341Z,999.40
2022-11-25T03:44:04.317Z,999.40
2022-11-25T03:45:04.301Z,999.35
2022-11-25T03:46:04.341Z,999.38
2022-11-25T03:47:04.298Z,999.38
2022-11-25T03:48:04.261Z,999.40
2022-11-25T03:49:04.261Z,999.36
2022-11-25T03:50:04.234Z,999.36
2022-11-25T03:51:04.231Z,999.35
2022-11-25T03:52:04.212Z,999.35
2022-11-25T03:53:04.220Z,999.33
2022-11-25T03:54:04.181Z,999.36
2022-11-25T03:55:04.200Z,999.33
2022-11-25T03:56:04.202Z,999.33
2022-11-25T03:57:04.155Z,999.36
2022-11-25T03:58:04.150Z,999.30
2022-11-25T03:59:04.132Z,999.32
2022-11-25T04:00:04.112Z,999.29
2022-11-25T04:01:04.119Z,999.30
2022-11-25T04:02:04.125Z,999.32
2022-11-25T04:03:04.080Z,999.33
2022-11-25T04:04:04.061Z,999.32
2022-11-25T04:05:04.049Z,999.26
2022-11-25T04:06:04.032Z,999.34
2022-11-25T04:07:04.017Z,999.34
2022-11-25T04:08:04.079Z,999.33
2022-11-25T04:09:04.000Z,999.31
2022-11-25T04:10:03.970Z,999.25
2022-11-25T04:11:03.971Z,999.23
2022-11-25T04:12:03.949Z,999.31
2022-11-25T04:13:03.980Z,999.35
2022-11-25T04:14:03.929Z,999.38
2022-11-25T04:15:03.939Z,999.34
2022-11-25T04:16:03.900Z,999.33
2022-11-25T04:17:03.977Z,999.32
2022-11-25T04:18:03.898Z,999.33
2022-11-25T04:19:03.859Z,999.37
2022-11-25T04:20:03.848Z,999.38
2022-11-25T04:21:03.839Z,999.39
2022-11-25T04:22:03.828Z,999.35
2022-11-25T04:23:03.845Z,999.33
2022-11-25T04:24:03.791Z,999.30
2022-11-25T04:25:03.790Z,999.30
2022-11-25T04:26:03.767Z,999.33
2022-11-25T04:27:03.759Z,999.32
2022-11-25T04:28:03.760Z,999.34
2022-11-25T04:29:03.730Z,999.35
2022-11-25T04:30:03.723Z,999.34
2022-11-25T04:31:03.730Z,999.34
2022-11-25T04:32:03.690Z,999.37
2022-11-25T04:33:03.713Z,999.34
2022-11-25T04:34:03.668Z,999.35
2022-11-25T04:35:03.668Z,999.34
2022-11-25T04:36:03.642Z,999.36
2022-11-25T04:37:03.632Z,999.35
2022-11-25T04:38:03.633Z,999.28
2022-11-25T04:39:03.599Z,999.28
2022-11-25T04:40:03.586Z,999.26
2022-11-25T04:41:03.577Z,999.31
2022-11-25T04:42:03.548Z,999.26
2022-11-25T04:43:09.032Z,999.23
2022-11-25T04:44:04.530Z,999.24
2022-11-25T04:46:19.945Z,999.27
2022-11-25T04:47:04.541Z,999.30
2022-11-25T04:48:03.497Z,999.31
2022-11-25T04:49:03.459Z,999.32
2022-11-25T04:50:03.467Z,999.32
2022-11-25T04:51:03.449Z,999.29
2022-11-25T04:52:03.427Z,999.30
2022-11-25T04:53:03.440Z,999.31
2022-11-25T04:54:03.400Z,999.31
2022-11-25T04:55:03.391Z,999.27
2022-11-25T04:56:03.389Z,999.28
2022-11-25T04:57:03.370Z,999.31
2022-11-25T04:58:03.337Z,999.35
2022-11-25T04:59:03.357Z,999.36
2022-11-25T05:00:03.330Z,999.39
2022-11-25T05:01:03.359Z,999.43
2022-11-25T05:02:03.343Z,999.39
2022-11-25T05:03:03.293Z,999.35
2022-11-25T05:04:03.290Z,999.35
2022-11-25T05:05:03.263Z,999.35
2022-11-25T05:06:03.248Z,999.34
2022-11-25T05:07:03.238Z,999.31
2022-11-25T05:08:03.223Z,999.28
2022-11-25T05:09:03.228Z,999.29
2022-11-25T05:10:03.196Z,999.38
2022-11-25T05:11:03.193Z,999.38
2022-11-25T05:12:03.167Z,999.37
2022-11-25T05:13:03.147Z,999.37
2022-11-25T05:14:03.158Z,999.27
2022-11-25T05:15:03.127Z,999.29
2022-11-25T05:16:03.112Z,999.30
2022-11-25T05:17:03.152Z,999.29
2022-11-25T05:18:03.087Z,999.36
2022-11-25T05:19:03.087Z,999.41
2022-11-25T05:20:03.057Z,999.44
2022-11-25T05:21:03.052Z,999.46
2022-11-25T05:22:03.039Z,999.51
2022-11-25T05:23:03.028Z,999.52
2022-11-25T05:24:03.027Z,999.59
2022-11-25T05:25:02.997Z,999.61
2022-11-25T05:26:02.988Z,999.61
2022-11-25T05:27:02.967Z,999.59
2022-11-25T05:28:02.964Z,999.64
2022-11-25T05:29:02.958Z,999.63
2022-11-25T05:30:02.928Z,999.67
2022-11-25T05:31:03.001Z,999.67
2022-11-25T05:32:02.903Z,999.65
2022-11-25T05:33:02.897Z,999.60
2022-11-25T05:34:02.896Z,999.61
2022-11-25T05:35:02.871Z,999.58
2022-11-25T05:36:02.846Z,999.56
2022-11-25T05:37:02.866Z,999.55
2022-11-25T05:38:02.827Z,999.55
2022-11-25T05:39:02.837Z,999.49
2022-11-25T05:40:02.826Z,999.53
2022-11-25T05:41:02.807Z,999.48
2022-11-25T05:42:02.785Z,999.47
2022-11-25T05:43:02.806Z,999.46
2022-11-25T05:44:02.786Z,999.38
2022-11-25T05:45:02.799Z,999.35
2022-11-25T05:46:02.773Z,999.31
2022-11-25T05:47:02.785Z,999.29
2022-11-25T05:48:02.826Z,999.26
2022-11-25T05:49:02.727Z,999.31
2022-11-25T05:50:02.799Z,999.32
2022-11-25T05:51:02.798Z,999.39
2022-11-25T05:52:02.716Z,999.43
2022-11-25T05:53:02.778Z,999.53
2022-11-25T05:54:02.683Z,999.56
2022-11-25T05:55:02.637Z,999.52
2022-11-25T05:56:02.645Z,999.54
2022-11-25T05:57:02.626Z,999.54
2022-11-25T05:58:02.556Z,999.54
2022-11-25T05:59:02.596Z,999.54
2022-11-25T06:00:02.537Z,999.49
2022-11-25T06:01:02.536Z,999.52
2022-11-25T06:02:02.569Z,999.49
2022-11-25T06:03:02.761Z,999.50
2022-11-25T06:04:02.547Z,999.53
2022-11-25T06:05:02.507Z,999.51
2022-11-25T06:06:02.504Z,999.49
2022-11-25T06:07:02.486Z,999.54
2022-11-25T06:08:02.484Z,999.51
2022-11-25T06:09:02.466Z,999.52
2022-11-25T06:10:03.465Z,999.54
2022-11-25T06:11:02.486Z,999.51
2022-11-25T06:12:02.426Z,999.48
2022-11-25T06:13:02.407Z,999.46
2022-11-25T06:14:02.377Z,999.46
2022-11-25T06:15:02.325Z,999.51
2022-11-25T06:16:07.569Z,999.53
2022-11-25T06:17:03.294Z,999.56
2022-11-25T06:18:02.310Z,999.60
2022-11-25T06:19:02.316Z,999.62
2022-11-25T06:20:02.285Z,999.61
2022-11-25T06:21:02.275Z,999.63
2022-11-25T06:22:02.245Z,999.67
2022-11-25T06:23:02.238Z,999.65
2022-11-25T06:24:02.243Z,999.70
2022-11-25T06:25:04.118Z,999.69
2022-11-25T06:26:02.195Z,999.68
2022-11-25T06:27:02.200Z,999.66
2022-11-25T06:28:12.734Z,999.68
2022-11-25T06:29:03.174Z,999.71
2022-11-25T06:30:02.170Z,999.75
2022-11-25T06:31:02.152Z,999.75
2022-11-25T06:32:02.117Z,999.76
2022-11-25T06:33:02.116Z,999.72
2022-11-25T06:34:02.104Z,999.77
2022-11-25T06:35:02.096Z,999.79
2022-11-25T06:36:02.075Z,999.76
2022-11-25T06:37:02.056Z,999.80
2022-11-25T06:38:02.035Z,999.78
2022-11-25T06:39:02.070Z,999.81
2022-11-25T06:40:02.016Z,999.84
2022-11-25T06:41:02.003Z,999.85
2022-11-25T06:42:01.986Z,999.86
2022-11-25T06:43:01.994Z,999.87
2022-11-25T06:44:01.974Z,999.88
2022-11-25T06:45:01.956Z,999.90
2022-11-25T06:46:01.972Z,999.93
2022-11-25T06:47:01.935Z,999.89
2022-11-25T06:48:01.910Z,999.90
2022-11-25T06:49:01.907Z,999.90
2022-11-25T06:50:01.887Z,999.90
2022-11-25T06:51:01.878Z,999.95
2022-11-25T06:52:01.868Z,999.92
2022-11-25T06:53:01.834Z,999.94
2022-11-25T06:54:01.868Z,999.92
2022-11-25T06:55:01.822Z,999.96
2022-11-25T06:56:01.814Z,999.94
2022-11-25T06:57:01.784Z,999.95
2022-11-25T06:58:20.679Z,999.97
2022-11-25T06:59:02.796Z,999.96
2022-11-25T07:00:01.752Z,999.98
2022-11-25T07:01:01.744Z,999.99
2022-11-25T07:02:01.859Z,999.97
2022-11-25T07:03:01.734Z,1000.03
2022-11-25T07:04:01.723Z,1000.01
2022-11-25T07:05:01.694Z,999.99
2022-11-25T07:06:08.798Z,1000.00
2022-11-25T07:07:01.657Z,1000.02
2022-11-25T07:08:01.653Z,1000.01
2022-11-25T07:09:01.649Z,1000.02
2022-11-25T07:10:01.619Z,999.98
2022-11-25T07:11:01.626Z,1000.01
2022-11-25T07:12:01.599Z,1000.02
2022-11-25T07:13:01.578Z,1000.01
2022-11-25T07:14:01.589Z,1000.01
2022-11-25T07:15:01.548Z,1000.03
2022-11-25T07:16:01.591Z,1000.06
2022-11-25T07:17:01.527Z,1000.11
2022-11-25T07:18:01.517Z,1000.08
2022-11-25T07:19:01.516Z,1000.10
2022-11-25T07:20:01.486Z,1000.05
2022-11-25T07:21:01.476Z,1000.10
2022-11-25T07:22:01.466Z,1000.13
2022-11-25T07:23:01.446Z,1000.13
2022-11-25T07:24:01.464Z,1000.13
2022-11-25T07:25:01.415Z,1000.17
2022-11-25T07:26:01.403Z,1000.22
2022-11-25T07:27:01.399Z,1000.24
2022-11-25T07:28:01.386Z,1000.21
2022-11-25T07:29:01.376Z,1000.23
2022-11-25T07:30:54.576Z,1000.22
2022-11-25T07:32:07.120Z,1000.23
2022-11-25T07:33:02.354Z,1000.26
2022-11-25T07:34:01.317Z,1000.29
2022-11-25T07:35:01.284Z,1000.27
2022-11-25T07:36:01.276Z,1000.26
2022-11-25T07:37:01.267Z,1000.26
2022-11-25T07:38:01.297Z,1000.31
2022-11-25T07:39:01.249Z,1000.31
2022-11-25T07:40:01.227Z,1000.33
2022-11-25T07:41:01.267Z,1000.37
2022-11-25T07:42:01.197Z,1000.38
2022-11-25T07:43:01.176Z,1000.40
2022-11-25T07:44:01.187Z,1000.44
2022-11-25T07:45:01.158Z,1000.42
2022-11-25T07:46:01.167Z,1000.43
2022-11-25T07:47:01.142Z,1000.49
2022-11-25T07:48:01.116Z,1000.48
2022-11-25T07:49:01.113Z,1000.51
2022-11-25T07:50:01.096Z,1000.50
2022-11-25T07:51:01.075Z,1000.50
2022-11-25T07:52:01.065Z,1000.48
2022-11-25T07:53:01.046Z,1000.49
2022-11-25T07:54:01.056Z,1000.52
2022-11-25T07:55:01.025Z,1000.52
2022-11-25T07:56:01.006Z,1000.53
2022-11-25T07:57:01.287Z,1000.58
2022-11-25T07:58:00.986Z,1000.56
2022-11-25T07:59:00.996Z,1000.60
2022-11-25T08:00:00.967Z,1000.57
2022-11-25T08:01:00.971Z,1000.60
2022-11-25T08:02:01.092Z,1000.60
2022-11-25T08:03:00.976Z,1000.61
2022-11-25T08:04:00.907Z,1000.63
2022-11-25T08:05:00.914Z,1000.59
2022-11-25T08:06:00.877Z,1000.59
2022-11-25T08:07:00.867Z,1000.60
2022-11-25T08:08:00.952Z,1000.57
2022-11-25T08:09:00.976Z,1000.56
2022-11-25T08:10:00.862Z,1000.58
2022-11-25T08:11:00.824Z,1000.55
2022-11-25T08:12:00.823Z,1000.55
2022-11-25T08:13:00.793Z,1000.52
2022-11-25T08:14:00.780Z,1000.55
2022-11-25T08:15:00.776Z,1000.54
2022-11-25T08:16:00.855Z,1000.59
2022-11-25T08:17:00.736Z,1000.59
2022-11-25T08:18:00.725Z,1000.58
2022-11-25T08:19:00.707Z,1000.58
2022-11-25T08:20:00.733Z,1000.58
2022-11-25T08:21:00.687Z,1000.59
2022-11-25T08:22:00.666Z,1000.60
2022-11-25T08:23:00.657Z,1000.58
2022-11-25T08:24:00.647Z,1000.58
2022-11-25T08:25:00.646Z,1000.59
2022-11-25T08:26:00.635Z,1000.57
2022-11-25T08:27:00.606Z,1000.59
2022-11-25T08:28:00.607Z,1000.61
2022-11-25T08:29:00.580Z,1000.63
2022-11-25T08:30:00.585Z,1000.66
2022-11-25T08:31:00.592Z,1000.65
2022-11-25T08:32:00.566Z,1000.68
2022-11-25T08:33:00.581Z,1000.69
2022-11-25T08:34:00.617Z,1000.70
2022-11-25T08:35:00.661Z,1000.73
2022-11-25T08:36:00.494Z,1000.76
2022-11-25T08:37:00.583Z,1000.77
2022-11-25T08:38:00.456Z,1000.78
2022-11-25T08:39:00.465Z,1000.74
2022-11-25T08:40:01.133Z,1000.74
2022-11-25T08:41:00.425Z,1000.76
2022-11-25T08:42:00.477Z,1000.75
2022-11-25T08:43:00.402Z,1000.77
2022-11-25T08:44:00.413Z,1000.80
2022-11-25T08:45:00.527Z,1000.76
2022-11-25T08:46:00.409Z,1000.80
2022-11-25T08:47:00.396Z,1000.76
2022-11-25T08:48:00.330Z,1000.78
2022-11-25T08:49:00.317Z,1000.81
2022-11-25T08:50:00.336Z,1000.80
2022-11-25T08:51:00.286Z,1000.82
2022-11-25T08:52:00.374Z,1000.85
2022-11-25T08:53:00.365Z,1000.85
2022-11-25T08:54:00.264Z,1000.83
2022-11-25T08:55:00.281Z,1000.81
2022-11-25T08:56:00.345Z,1000.84
2022-11-25T08:57:00.205Z,1000.88
2022-11-25T08:58:00.189Z,1000.82
2022-11-25T08:59:00.190Z,1000.85
2022-11-25T09:00:00.196Z,1000.86
2022-11-25T09:01:00.163Z,1000.85
2022-11-25T09:02:00.377Z,1000.89
2022-11-25T09:03:01.137Z,1000.90
2022-11-25T09:04:00.126Z,1000.95
2022-11-25T09:05:00.118Z,1000.93
2022-11-25T09:06:00.324Z,1000.95
2022-11-25T09:07:00.096Z,1000.98
2022-11-25T09:08:00.130Z,1000.99
2022-11-25T09:09:00.057Z,1001.00
2022-11-25T09:10:00.230Z,1001.05
2022-11-25T09:11:00.066Z,1001.04
2022-11-25T09:12:00.043Z,1001.06
2022-11-25T09:13:00.005Z,1001.07
2022-11-25T09:14:00.077Z,1001.10
2022-11-25T09:15:00.004Z,1001.10
2022-11-25T09:16:00.060Z,1001.10
2022-11-25T09:17:00.065Z,1001.12
2022-11-25T09:18:00.143Z,1001.14
2022-11-25T09:18:59.915Z,1001.12
2022-11-25T09:19:59.924Z,1001.10
2022-11-25T09:21:00.039Z,1001.13
2022-11-25T09:21:59.893Z,1001.12
2022-11-25T09:22:59.864Z,1001.12
2022-11-25T09:23:59.883Z,1001.12
2022-11-25T09:24:59.925Z,1001.12
2022-11-25T09:25:59.843Z,1001.16
2022-11-25T09:26:59.814Z,1001.19
2022-11-25T09:27:59.813Z,1001.20
2022-11-25T09:28:59.784Z,1001.16
2022-11-25T09:29:59.814Z,1001.19
2022-11-25T09:30:59.940Z,1001.25
2022-11-25T09:31:59.852Z,1001.25
2022-11-25T09:32:59.916Z,1001.31
2022-11-25T09:33:59.754Z,1001.29
2022-11-25T09:34:59.715Z,1001.33
2022-11-25T09:35:59.724Z,1001.35
2022-11-25T09:36:59.674Z,1001.37
2022-11-25T09:37:59.684Z,1001.41
2022-11-25T09:38:59.648Z,1001.46
2022-11-25T09:39:59.650Z,1001.47
2022-11-25T09:40:59.621Z,1001.46
2022-11-25T09:41:59.622Z,1001.54
2022-11-25T09:42:59.592Z,1001.52
2022-11-25T09:43:59.582Z,1001.54
2022-11-25T09:44:59.605Z,1001.55
2022-11-25T09:45:59.643Z,1001.54
2022-11-25T09:46:59.856Z,1001.54
2022-11-25T09:47:59.546Z,1001.54
2022-11-25T09:48:59.633Z,1001.54
2022-11-25T09:49:59.554Z,1001.56
2022-11-25T09:50:59.587Z,1001.57
2022-11-25T09:51:59.526Z,1001.53
2022-11-25T09:52:59.474Z,1001.58
2022-11-25T09:53:59.474Z,1001.60
2022-11-25T09:54:59.844Z,1001.61
2022-11-25T09:56:01.596Z,1001.57
2022-11-25T09:56:59.435Z,1001.56
2022-11-25T09:57:59.969Z,1001.55
2022-11-25T09:58:59.405Z,1001.58
2022-11-25T09:59:59.409Z,1001.59
2022-11-25T10:00:59.412Z,1001.62
2022-11-25T10:01:59.420Z,1001.64
2022-11-25T10:02:59.504Z,1001.72
2022-11-25T10:03:59.345Z,1001.69
2022-11-25T10:04:59.334Z,1001.69
2022-11-25T10:05:59.333Z,1001.70
2022-11-25T10:06:59.360Z,1001.70
2022-11-25T10:07:59.313Z,1001.70
2022-11-25T10:08:59.284Z,1001.74
2022-11-25T10:09:59.272Z,1001.74
2022-11-25T10:10:59.288Z,1001.74
2022-11-25T10:11:59.242Z,1001.76
2022-11-25T10:12:59.235Z,1001.76
2022-11-25T10:13:59.213Z,1001.72
2022-11-25T10:14:59.202Z,1001.71
2022-11-25T10:15:59.237Z,1001.74
2022-11-25T10:16:59.164Z,1001.81
2022-11-25T10:17:59.180Z,1001.79
2022-11-25T10:18:59.167Z,1001.76
2022-11-25T10:19:59.160Z,1001.72
2022-11-25T10:20:59.142Z,1001.75
2022-11-25T10:21:59.125Z,1001.69
2022-11-25T10:22:59.107Z,1001.71
2022-11-25T10:23:59.098Z,1001.73
2022-11-25T10:24:59.066Z,1001.71
2022-11-25T10:25:59.082Z,1001.68
2022-11-25T10:26:59.046Z,1001.69
2022-11-25T10:27:59.035Z,1001.66
2022-11-25T10:28:59.023Z,1001.64
2022-11-25T10:29:59.015Z,1001.59
2022-11-25T10:30:59.075Z,1001.66
2022-11-25T10:31:58.993Z,1001.61
2022-11-25T10:33:02.346Z,1001.63
2022-11-25T10:33:58.968Z,1001.62
2022-11-25T10:34:59.225Z,1001.63
2022-11-25T10:35:58.947Z,1001.67
2022-11-25T10:36:58.921Z,1001.69
2022-11-25T10:37:58.914Z,1001.66
2022-11-25T10:38:58.905Z,1001.62
2022-11-25T10:39:58.883Z,1001.63
2022-11-25T10:40:58.895Z,1001.59
2022-11-25T10:41:58.847Z,1001.62
2022-11-25T10:42:58.844Z,1001.60
2022-11-25T10:43:58.832Z,1001.66
2022-11-25T10:44:58.804Z,1001.63
2022-11-25T10:45:58.824Z,1001.67
2022-11-25T10:47:13.395Z,1001.70
2022-11-25T10:47:59.782Z,1001.75
2022-11-25T10:48:58.775Z,1001.71
2022-11-25T10:49:58.754Z,1001.69
2022-11-25T10:50:58.763Z,1001.70
2022-11-25T10:51:58.713Z,1001.65
2022-11-25T10:52:58.694Z,1001.64
2022-11-25T10:53:58.702Z,1001.67
2022-11-25T10:54:58.692Z,1001.70
2022-11-25T10:55:58.676Z,1001.74
2022-11-25T10:56:58.676Z,1001.75
2022-11-25T10:57:58.655Z,1001.75
2022-11-25T10:58:58.634Z,1001.72
2022-11-25T10:59:58.638Z,1001.73
2022-11-25T11:00:58.624Z,1001.72
2022-11-25T11:01:58.707Z,1001.72
2022-11-25T11:02:58.739Z,1001.79
2022-11-25T11:03:58.563Z,1001.77
2022-11-25T11:04:58.569Z,1001.77
2022-11-25T11:05:58.524Z,1001.78
2022-11-25T11:06:58.552Z,1001.80
2022-11-25T11:07:58.550Z,1001.75
2022-11-25T11:08:58.502Z,1001.80
2022-11-25T11:09:58.488Z,1001.76
2022-11-25T11:10:58.483Z,1001.77
2022-11-25T11:11:58.504Z,1001.75
2022-11-25T11:12:58.452Z,1001.77
2022-11-25T11:13:58.439Z,1001.81
2022-11-25T11:14:58.423Z,1001.84
2022-11-25T11:15:58.445Z,1001.86
2022-11-25T11:16:58.423Z,1001.85
2022-11-25T11:17:58.383Z,1001.89
2022-11-25T11:18:58.376Z,1001.89
2022-11-25T11:19:58.353Z,1001.88
2022-11-25T11:20:58.346Z,1001.90
2022-11-25T11:21:58.341Z,1001.91
2022-11-25T11:22:58.325Z,1001.90
2022-11-25T11:23:58.275Z,1001.90
2022-11-25T11:24:58.282Z,1001.90
2022-11-25T11:25:58.276Z,1001.90
2022-11-25T11:26:58.282Z,1001.92
2022-11-25T11:27:58.237Z,1001.95
2022-11-25T11:28:58.235Z,1001.99
2022-11-25T11:29:58.213Z,1001.95
2022-11-25T11:30:58.318Z,1001.98
2022-11-25T11:31:58.212Z,1001.98
2022-11-25T11:32:58.183Z,1001.99
2022-11-25T11:33:58.152Z,1001.98
2022-11-25T11:34:58.153Z,1001.98
2022-11-25T11:35:58.123Z,1001.97
2022-11-25T11:36:58.168Z,1001.98
2022-11-25T11:37:58.104Z,1001.97
2022-11-25T11:38:58.105Z,1002.01
2022-11-25T11:39:58.075Z,1002.03
2022-11-25T11:40:58.074Z,1002.03
2022-11-25T11:41:58.071Z,1002.05
2022-11-25T11:42:58.043Z,1002.00
2022-11-25T11:43:58.027Z,1002.01
2022-11-25T11:44:58.026Z,1002.06
2022-11-25T11:45:58.045Z,1002.05
2022-11-25T11:46:58.060Z,1002.06
2022-11-25T11:47:57.964Z,1002.04
2022-11-25T11:48:57.963Z,1002.04
2022-11-25T11:49:57.933Z,1002.00
2022-11-25T11:50:58.004Z,1001.97
2022-11-25T11:51:57.995Z,1002.03
2022-11-25T11:52:57.937Z,1002.04
2022-11-25T11:53:57.888Z,1002.07
2022-11-25T11:54:57.882Z,1002.12
2022-11-25T11:56:26.935Z,1002.09
2022-11-25T11:57:00.264Z,1002.10
2022-11-25T11:57:58.340Z,1002.06
2022-11-25T11:58:57.835Z,1002.07
2022-11-25T11:59:58.252Z,1002.07
2022-11-25T12:00:57.804Z,1002.10
2022-11-25T12:01:57.849Z,1002.13
2022-11-25T12:02:57.780Z,1002.10
2022-11-25T12:03:57.766Z,1002.13
2022-11-25T12:04:57.758Z,1002.16
2022-11-25T12:05:57.724Z,1002.12
2022-11-25T12:06:57.743Z,1002.17
2022-11-25T12:07:57.782Z,1002.23
2022-11-25T12:08:57.713Z,1002.23
2022-11-25T12:09:57.666Z,1002.27
2022-11-25T12:10:57.674Z,1002.27
2022-11-25T12:11:57.655Z,1002.30
2022-11-25T12:12:57.884Z,1002.25
2022-11-25T12:14:00.859Z,1002.28
2022-11-25T12:14:58.027Z,1002.26
2022-11-25T12:15:58.173Z,1002.23
2022-11-25T12:16:57.651Z,1002.23
2022-11-25T12:17:57.575Z,1002.20
2022-11-25T12:18:57.563Z,1002.20
2022-11-25T12:19:57.553Z,1002.17
2022-11-25T12:20:57.565Z,1002.22
2022-11-25T12:21:57.524Z,1002.23